sensor_id;sensor_type;location;lat;lon;timestamp;P1;durP1;ratioP1;P2;durP2;ratioP2
7029;SDS011;3556;53.500;10.176;2023-08-07T00:01:53;4.13;;;3.17;;
7029;SDS011;3556;53.500;10.176;2023-08-07T00:04:18;3.93;;;2.70;;
7029;SDS011;3556;53.500;10.176;2023-08-07T00:06:44;3.73;;;2.40;;
7029;SDS011;3556;53.500;10.176;2023-08-07T00:09:09;3.03;;;2.20;;
7029;SDS011;3556;53.500;10.176;2023-08-07T00:11:35;3.23;;;2.33;;
7029;SDS011;3556;53.500;10.176;2023-08-07T00:14:01;2.67;;;2.47;;
7029;SDS011;3556;53.500;10.176;2023-08-07T00:16:26;3.60;;;2.60;;
7029;SDS011;3556;53.500;10.176;2023-08-07T00:18:52;3.17;;;2.60;;
7029;SDS011;3556;53.500;10.176;2023-08-07T00:21:21;3.03;;;2.40;;
7029;SDS011;3556;53.500;10.176;2023-08-07T00:23:47;3.63;;;2.67;;
7029;SDS011;3556;53.500;10.176;2023-08-07T00:26:14;3.53;;;2.50;;
7029;SDS011;3556;53.500;10.176;2023-08-07T00:28:40;2.90;;;2.17;;
7029;SDS011;3556;53.500;10.176;2023-08-07T00:31:06;5.17;;;2.43;;
7029;SDS011;3556;53.500;10.176;2023-08-07T00:33:31;4.70;;;2.53;;
7029;SDS011;3556;53.500;10.176;2023-08-07T00:35:57;5.70;;;2.40;;
7029;SDS011;3556;53.500;10.176;2023-08-07T00:38:23;3.10;;;2.50;;
7029;SDS011;3556;53.500;10.176;2023-08-07T00:40:49;2.30;;;2.10;;
7029;SDS011;3556;53.500;10.176;2023-08-07T00:43:15;3.00;;;2.40;;
7029;SDS011;3556;53.500;10.176;2023-08-07T00:45:45;3.37;;;2.03;;
7029;SDS011;3556;53.500;10.176;2023-08-07T00:48:12;3.30;;;1.90;;
7029;SDS011;3556;53.500;10.176;2023-08-07T00:50:38;3.60;;;2.43;;
7029;SDS011;3556;53.500;10.176;2023-08-07T00:53:06;2.43;;;2.20;;
7029;SDS011;3556;53.500;10.176;2023-08-07T00:55:32;2.67;;;2.53;;
7029;SDS011;3556;53.500;10.176;2023-08-07T00:57:58;3.40;;;2.47;;
7029;SDS011;3556;53.500;10.176;2023-08-07T01:00:25;1.87;;;1.77;;
7029;SDS011;3556;53.500;10.176;2023-08-07T01:02:56;2.90;;;2.23;;
7029;SDS011;3556;53.500;10.176;2023-08-07T01:05:22;2.10;;;1.83;;
7029;SDS011;3556;53.500;10.176;2023-08-07T01:07:50;6.07;;;2.63;;
7029;SDS011;3556;53.500;10.176;2023-08-07T01:10:19;3.40;;;2.20;;
7029;SDS011;3556;53.500;10.176;2023-08-07T01:13:28;2.30;;;1.93;;
7029;SDS011;3556;53.500;10.176;2023-08-07T01:15:59;4.63;;;2.30;;
7029;SDS011;3556;53.500;10.176;2023-08-07T01:18:32;2.70;;;1.80;;
7029;SDS011;3556;53.500;10.176;2023-08-07T01:20:59;2.57;;;2.40;;
7029;SDS011;3556;53.500;10.176;2023-08-07T01:23:25;2.43;;;2.23;;
7029;SDS011;3556;53.500;10.176;2023-08-07T01:25:51;3.70;;;2.00;;
7029;SDS011;3556;53.500;10.176;2023-08-07T01:28:18;3.77;;;2.20;;
7029;SDS011;3556;53.500;10.176;2023-08-07T01:30:55;2.23;;;2.00;;
7029;SDS011;3556;53.500;10.176;2023-08-07T01:33:39;8.30;;;2.00;;
7029;SDS011;3556;53.500;10.176;2023-08-07T01:36:12;2.90;;;1.90;;
7029;SDS011;3556;53.500;10.176;2023-08-07T01:38:39;3.30;;;1.90;;
7029;SDS011;3556;53.500;10.176;2023-08-07T01:41:06;3.90;;;1.73;;
7029;SDS011;3556;53.500;10.176;2023-08-07T01:43:32;2.23;;;2.03;;
7029;SDS011;3556;53.500;10.176;2023-08-07T01:45:58;4.80;;;2.30;;
7029;SDS011;3556;53.500;10.176;2023-08-07T01:48:24;3.10;;;1.90;;
7029;SDS011;3556;53.500;10.176;2023-08-07T01:50:50;2.10;;;1.90;;
7029;SDS011;3556;53.500;10.176;2023-08-07T01:53:16;4.80;;;2.30;;
7029;SDS011;3556;53.500;10.176;2023-08-07T01:55:41;2.00;;;1.90;;
7029;SDS011;3556;53.500;10.176;2023-08-07T01:58:07;8.67;;;2.23;;
7029;SDS011;3556;53.500;10.176;2023-08-07T02:00:32;4.60;;;2.20;;
7029;SDS011;3556;53.500;10.176;2023-08-07T02:02:58;2.67;;;2.00;;
7029;SDS011;3556;53.500;10.176;2023-08-07T02:05:23;3.13;;;2.27;;
7029;SDS011;3556;53.500;10.176;2023-08-07T02:07:49;2.30;;;2.07;;
7029;SDS011;3556;53.500;10.176;2023-08-07T02:10:15;4.20;;;2.00;;
7029;SDS011;3556;53.500;10.176;2023-08-07T02:12:40;3.60;;;1.83;;
7029;SDS011;3556;53.500;10.176;2023-08-07T02:15:06;3.10;;;1.70;;
7029;SDS011;3556;53.500;10.176;2023-08-07T02:17:32;3.50;;;1.70;;
7029;SDS011;3556;53.500;10.176;2023-08-07T02:20:03;1.63;;;1.40;;
7029;SDS011;3556;53.500;10.176;2023-08-07T02:22:30;2.90;;;1.70;;
7029;SDS011;3556;53.500;10.176;2023-08-07T02:24:55;2.63;;;2.00;;
7029;SDS011;3556;53.500;10.176;2023-08-07T02:27:21;3.30;;;1.60;;
7029;SDS011;3556;53.500;10.176;2023-08-07T02:29:47;3.53;;;2.00;;
7029;SDS011;3556;53.500;10.176;2023-08-07T02:32:12;1.80;;;1.70;;
7029;SDS011;3556;53.500;10.176;2023-08-07T02:34:38;4.20;;;1.87;;
7029;SDS011;3556;53.500;10.176;2023-08-07T02:37:04;1.87;;;1.77;;
7029;SDS011;3556;53.500;10.176;2023-08-07T02:39:29;2.20;;;2.00;;
7029;SDS011;3556;53.500;10.176;2023-08-07T02:41:55;2.50;;;1.70;;
7029;SDS011;3556;53.500;10.176;2023-08-07T02:44:20;4.00;;;2.10;;
7029;SDS011;3556;53.500;10.176;2023-08-07T02:46:46;2.17;;;2.00;;
7029;SDS011;3556;53.500;10.176;2023-08-07T02:49:12;3.37;;;1.93;;
7029;SDS011;3556;53.500;10.176;2023-08-07T02:51:37;2.07;;;1.87;;
7029;SDS011;3556;53.500;10.176;2023-08-07T02:54:03;2.30;;;2.03;;
7029;SDS011;3556;53.500;10.176;2023-08-07T02:56:29;2.23;;;2.03;;
7029;SDS011;3556;53.500;10.176;2023-08-07T02:58:55;3.10;;;2.30;;
7029;SDS011;3556;53.500;10.176;2023-08-07T03:01:23;2.73;;;1.60;;
7029;SDS011;3556;53.500;10.176;2023-08-07T03:03:48;3.80;;;1.83;;
7029;SDS011;3556;53.500;10.176;2023-08-07T03:06:14;2.90;;;2.00;;
7029;SDS011;3556;53.500;10.176;2023-08-07T03:08:40;2.90;;;1.70;;
7029;SDS011;3556;53.500;10.176;2023-08-07T03:11:05;7.23;;;1.63;;
7029;SDS011;3556;53.500;10.176;2023-08-07T03:13:31;2.40;;;1.97;;
7029;SDS011;3556;53.500;10.176;2023-08-07T03:16:00;4.50;;;1.70;;
7029;SDS011;3556;53.500;10.176;2023-08-07T03:18:26;4.97;;;1.43;;
7029;SDS011;3556;53.500;10.176;2023-08-07T03:20:54;1.73;;;1.43;;
7029;SDS011;3556;53.500;10.176;2023-08-07T03:23:20;3.10;;;1.80;;
7029;SDS011;3556;53.500;10.176;2023-08-07T03:25:45;1.77;;;1.60;;
7029;SDS011;3556;53.500;10.176;2023-08-07T03:28:11;2.17;;;1.60;;
7029;SDS011;3556;53.500;10.176;2023-08-07T03:30:36;2.43;;;1.50;;
7029;SDS011;3556;53.500;10.176;2023-08-07T03:33:03;4.90;;;1.73;;
7029;SDS011;3556;53.500;10.176;2023-08-07T03:35:28;2.13;;;1.40;;
7029;SDS011;3556;53.500;10.176;2023-08-07T03:37:54;2.43;;;1.87;;
7029;SDS011;3556;53.500;10.176;2023-08-07T03:40:19;3.43;;;1.73;;
7029;SDS011;3556;53.500;10.176;2023-08-07T03:42:45;2.47;;;1.80;;
7029;SDS011;3556;53.500;10.176;2023-08-07T03:45:10;2.00;;;1.70;;
7029;SDS011;3556;53.500;10.176;2023-08-07T03:47:36;4.20;;;2.00;;
7029;SDS011;3556;53.500;10.176;2023-08-07T03:50:02;4.30;;;1.90;;
7029;SDS011;3556;53.500;10.176;2023-08-07T03:52:27;5.70;;;1.93;;
7029;SDS011;3556;53.500;10.176;2023-08-07T03:54:53;2.40;;;2.20;;
7029;SDS011;3556;53.500;10.176;2023-08-07T03:57:19;3.73;;;2.00;;
7029;SDS011;3556;53.500;10.176;2023-08-07T03:59:44;3.90;;;2.00;;
7029;SDS011;3556;53.500;10.176;2023-08-07T04:02:10;7.33;;;2.10;;
7029;SDS011;3556;53.500;10.176;2023-08-07T04:04:35;5.10;;;2.07;;
7029;SDS011;3556;53.500;10.176;2023-08-07T04:07:01;3.70;;;2.10;;
7029;SDS011;3556;53.500;10.176;2023-08-07T04:09:27;6.20;;;2.20;;
7029;SDS011;3556;53.500;10.176;2023-08-07T04:11:52;2.20;;;1.87;;
7029;SDS011;3556;53.500;10.176;2023-08-07T04:14:18;3.20;;;2.00;;
7029;SDS011;3556;53.500;10.176;2023-08-07T04:16:44;2.80;;;1.90;;
7029;SDS011;3556;53.500;10.176;2023-08-07T04:19:10;2.13;;;1.80;;
7029;SDS011;3556;53.500;10.176;2023-08-07T04:21:35;3.73;;;1.90;;
7029;SDS011;3556;53.500;10.176;2023-08-07T04:24:01;2.30;;;1.97;;
7029;SDS011;3556;53.500;10.176;2023-08-07T04:26:33;2.07;;;1.80;;
7029;SDS011;3556;53.500;10.176;2023-08-07T04:28:59;5.70;;;2.00;;
7029;SDS011;3556;53.500;10.176;2023-08-07T04:31:25;4.20;;;2.37;;
7029;SDS011;3556;53.500;10.176;2023-08-07T04:33:50;2.00;;;1.80;;
7029;SDS011;3556;53.500;10.176;2023-08-07T04:36:16;4.50;;;2.50;;
7029;SDS011;3556;53.500;10.176;2023-08-07T04:38:41;9.40;;;2.27;;
7029;SDS011;3556;53.500;10.176;2023-08-07T04:41:07;8.30;;;2.10;;
7029;SDS011;3556;53.500;10.176;2023-08-07T04:43:32;6.60;;;2.50;;
7029;SDS011;3556;53.500;10.176;2023-08-07T04:45:59;8.97;;;2.10;;
7029;SDS011;3556;53.500;10.176;2023-08-07T04:48:25;3.23;;;2.10;;
7029;SDS011;3556;53.500;10.176;2023-08-07T04:50:50;3.30;;;1.90;;
7029;SDS011;3556;53.500;10.176;2023-08-07T04:53:16;4.40;;;2.37;;
7029;SDS011;3556;53.500;10.176;2023-08-07T04:55:42;7.33;;;2.50;;
7029;SDS011;3556;53.500;10.176;2023-08-07T04:58:08;4.07;;;2.10;;
7029;SDS011;3556;53.500;10.176;2023-08-07T05:00:33;5.00;;;2.60;;
7029;SDS011;3556;53.500;10.176;2023-08-07T05:02:59;9.43;;;2.57;;
7029;SDS011;3556;53.500;10.176;2023-08-07T05:05:26;6.27;;;2.93;;
7029;SDS011;3556;53.500;10.176;2023-08-07T05:07:53;4.50;;;2.33;;
7029;SDS011;3556;53.500;10.176;2023-08-07T05:10:19;6.40;;;2.50;;
7029;SDS011;3556;53.500;10.176;2023-08-07T05:12:45;3.20;;;2.50;;
7029;SDS011;3556;53.500;10.176;2023-08-07T05:15:11;7.50;;;2.20;;
7029;SDS011;3556;53.500;10.176;2023-08-07T05:17:36;7.30;;;2.27;;
7029;SDS011;3556;53.500;10.176;2023-08-07T05:20:02;4.00;;;2.37;;
7029;SDS011;3556;53.500;10.176;2023-08-07T05:22:29;2.60;;;2.37;;
7029;SDS011;3556;53.500;10.176;2023-08-07T05:24:55;4.17;;;2.50;;
7029;SDS011;3556;53.500;10.176;2023-08-07T05:27:20;3.63;;;2.20;;
7029;SDS011;3556;53.500;10.176;2023-08-07T05:29:46;4.10;;;2.50;;
7029;SDS011;3556;53.500;10.176;2023-08-07T05:32:12;3.37;;;2.23;;
7029;SDS011;3556;53.500;10.176;2023-08-07T05:34:39;5.50;;;2.70;;
7029;SDS011;3556;53.500;10.176;2023-08-07T05:37:05;9.50;;;2.40;;
7029;SDS011;3556;53.500;10.176;2023-08-07T05:39:32;7.70;;;2.20;;
7029;SDS011;3556;53.500;10.176;2023-08-07T05:41:57;6.10;;;2.50;;
7029;SDS011;3556;53.500;10.176;2023-08-07T05:44:24;2.30;;;2.10;;
7029;SDS011;3556;53.500;10.176;2023-08-07T05:46:49;4.53;;;2.60;;
7029;SDS011;3556;53.500;10.176;2023-08-07T05:49:15;4.97;;;2.20;;
7029;SDS011;3556;53.500;10.176;2023-08-07T05:51:41;5.50;;;2.40;;
7029;SDS011;3556;53.500;10.176;2023-08-07T05:54:07;5.17;;;2.47;;
7029;SDS011;3556;53.500;10.176;2023-08-07T05:56:33;7.47;;;2.63;;
7029;SDS011;3556;53.500;10.176;2023-08-07T05:58:58;7.50;;;2.70;;
7029;SDS011;3556;53.500;10.176;2023-08-07T06:01:24;3.20;;;2.70;;
7029;SDS011;3556;53.500;10.176;2023-08-07T06:03:56;7.77;;;2.70;;
7029;SDS011;3556;53.500;10.176;2023-08-07T06:06:22;11.10;;;3.10;;
7029;SDS011;3556;53.500;10.176;2023-08-07T06:08:48;12.07;;;2.80;;
7029;SDS011;3556;53.500;10.176;2023-08-07T06:11:13;5.07;;;2.77;;
7029;SDS011;3556;53.500;10.176;2023-08-07T06:13:42;5.40;;;2.90;;
7029;SDS011;3556;53.500;10.176;2023-08-07T06:16:08;6.70;;;3.03;;
7029;SDS011;3556;53.500;10.176;2023-08-07T06:18:34;5.10;;;3.30;;
7029;SDS011;3556;53.500;10.176;2023-08-07T06:20:59;5.33;;;2.53;;
7029;SDS011;3556;53.500;10.176;2023-08-07T06:23:25;3.80;;;2.40;;
7029;SDS011;3556;53.500;10.176;2023-08-07T06:25:51;5.90;;;2.60;;
7029;SDS011;3556;53.500;10.176;2023-08-07T06:28:16;5.23;;;2.70;;
7029;SDS011;3556;53.500;10.176;2023-08-07T06:30:42;5.83;;;3.07;;
7029;SDS011;3556;53.500;10.176;2023-08-07T06:33:07;7.37;;;2.90;;
7029;SDS011;3556;53.500;10.176;2023-08-07T06:35:39;10.20;;;3.20;;
7029;SDS011;3556;53.500;10.176;2023-08-07T06:38:05;6.10;;;2.87;;
7029;SDS011;3556;53.500;10.176;2023-08-07T06:40:31;6.50;;;2.50;;
7029;SDS011;3556;53.500;10.176;2023-08-07T06:42:59;12.67;;;3.60;;
7029;SDS011;3556;53.500;10.176;2023-08-07T06:45:25;9.20;;;3.20;;
7029;SDS011;3556;53.500;10.176;2023-08-07T06:47:51;7.00;;;2.80;;
7029;SDS011;3556;53.500;10.176;2023-08-07T06:50:17;7.07;;;2.60;;
7029;SDS011;3556;53.500;10.176;2023-08-07T06:52:42;14.00;;;2.77;;
7029;SDS011;3556;53.500;10.176;2023-08-07T06:55:08;7.47;;;2.77;;
7029;SDS011;3556;53.500;10.176;2023-08-07T06:57:34;4.77;;;2.67;;
7029;SDS011;3556;53.500;10.176;2023-08-07T06:59:59;19.50;;;3.10;;
7029;SDS011;3556;53.500;10.176;2023-08-07T07:02:25;7.47;;;2.83;;
7029;SDS011;3556;53.500;10.176;2023-08-07T07:04:51;7.60;;;2.73;;
7029;SDS011;3556;53.500;10.176;2023-08-07T07:07:16;9.53;;;2.73;;
7029;SDS011;3556;53.500;10.176;2023-08-07T07:09:42;9.70;;;3.23;;
7029;SDS011;3556;53.500;10.176;2023-08-07T07:12:07;25.53;;;3.50;;
7029;SDS011;3556;53.500;10.176;2023-08-07T07:14:33;12.23;;;3.30;;
7029;SDS011;3556;53.500;10.176;2023-08-07T07:16:59;14.43;;;3.10;;
7029;SDS011;3556;53.500;10.176;2023-08-07T07:19:25;8.47;;;2.87;;
7029;SDS011;3556;53.500;10.176;2023-08-07T07:21:51;11.23;;;2.83;;
7029;SDS011;3556;53.500;10.176;2023-08-07T07:24:17;9.53;;;2.87;;
7029;SDS011;3556;53.500;10.176;2023-08-07T07:26:42;9.23;;;2.80;;
7029;SDS011;3556;53.500;10.176;2023-08-07T07:29:08;10.10;;;2.57;;
7029;SDS011;3556;53.500;10.176;2023-08-07T07:31:34;18.23;;;3.20;;
7029;SDS011;3556;53.500;10.176;2023-08-07T07:33:59;8.73;;;3.50;;
7029;SDS011;3556;53.500;10.176;2023-08-07T07:36:25;21.90;;;3.47;;
7029;SDS011;3556;53.500;10.176;2023-08-07T07:38:51;17.30;;;3.10;;
7029;SDS011;3556;53.500;10.176;2023-08-07T07:41:16;12.37;;;2.77;;
7029;SDS011;3556;53.500;10.176;2023-08-07T07:43:42;13.03;;;3.13;;
7029;SDS011;3556;53.500;10.176;2023-08-07T07:46:08;8.50;;;2.80;;
7029;SDS011;3556;53.500;10.176;2023-08-07T07:48:34;4.20;;;2.27;;
7029;SDS011;3556;53.500;10.176;2023-08-07T07:51:00;5.87;;;3.00;;
7029;SDS011;3556;53.500;10.176;2023-08-07T07:53:27;7.50;;;2.50;;
7029;SDS011;3556;53.500;10.176;2023-08-07T07:55:53;6.63;;;2.70;;
7029;SDS011;3556;53.500;10.176;2023-08-07T07:58:19;9.97;;;2.80;;
7029;SDS011;3556;53.500;10.176;2023-08-07T08:00:45;6.30;;;3.47;;
7029;SDS011;3556;53.500;10.176;2023-08-07T08:03:11;12.63;;;3.30;;
7029;SDS011;3556;53.500;10.176;2023-08-07T08:05:37;7.27;;;2.67;;
7029;SDS011;3556;53.500;10.176;2023-08-07T08:08:03;17.63;;;3.20;;
7029;SDS011;3556;53.500;10.176;2023-08-07T08:10:30;9.93;;;2.87;;
7029;SDS011;3556;53.500;10.176;2023-08-07T08:12:55;8.37;;;2.63;;
7029;SDS011;3556;53.500;10.176;2023-08-07T08:15:21;7.17;;;2.43;;
7029;SDS011;3556;53.500;10.176;2023-08-07T08:17:47;9.67;;;2.73;;
7029;SDS011;3556;53.500;10.176;2023-08-07T08:20:13;16.63;;;2.90;;
7029;SDS011;3556;53.500;10.176;2023-08-07T08:22:43;5.90;;;2.53;;
7029;SDS011;3556;53.500;10.176;2023-08-07T08:25:09;11.80;;;2.70;;
7029;SDS011;3556;53.500;10.176;2023-08-07T08:27:36;8.67;;;2.47;;
7029;SDS011;3556;53.500;10.176;2023-08-07T08:30:05;11.83;;;2.50;;
7029;SDS011;3556;53.500;10.176;2023-08-07T08:32:31;11.30;;;2.67;;
7029;SDS011;3556;53.500;10.176;2023-08-07T08:34:57;14.03;;;2.67;;
7029;SDS011;3556;53.500;10.176;2023-08-07T08:37:23;9.27;;;2.60;;
7029;SDS011;3556;53.500;10.176;2023-08-07T08:39:49;16.80;;;3.00;;
7029;SDS011;3556;53.500;10.176;2023-08-07T08:42:14;11.50;;;2.60;;
7029;SDS011;3556;53.500;10.176;2023-08-07T08:44:45;8.77;;;2.90;;
7029;SDS011;3556;53.500;10.176;2023-08-07T08:47:16;10.83;;;2.67;;
7029;SDS011;3556;53.500;10.176;2023-08-07T08:49:51;11.07;;;3.03;;
7029;SDS011;3556;53.500;10.176;2023-08-07T08:52:22;15.20;;;2.80;;
7029;SDS011;3556;53.500;10.176;2023-08-07T08:54:48;7.87;;;3.17;;
7029;SDS011;3556;53.500;10.176;2023-08-07T08:57:14;14.43;;;3.33;;
7029;SDS011;3556;53.500;10.176;2023-08-07T08:59:42;15.37;;;3.20;;
7029;SDS011;3556;53.500;10.176;2023-08-07T09:02:08;18.50;;;3.30;;
7029;SDS011;3556;53.500;10.176;2023-08-07T09:04:35;13.37;;;2.67;;
7029;SDS011;3556;53.500;10.176;2023-08-07T09:07:01;7.57;;;2.50;;
7029;SDS011;3556;53.500;10.176;2023-08-07T09:09:27;8.50;;;3.03;;
7029;SDS011;3556;53.500;10.176;2023-08-07T09:11:53;16.13;;;3.40;;
7029;SDS011;3556;53.500;10.176;2023-08-07T09:14:22;7.50;;;2.50;;
7029;SDS011;3556;53.500;10.176;2023-08-07T09:16:51;14.37;;;3.13;;
7029;SDS011;3556;53.500;10.176;2023-08-07T09:19:18;14.73;;;3.80;;
7029;SDS011;3556;53.500;10.176;2023-08-07T09:21:44;12.27;;;3.20;;
7029;SDS011;3556;53.500;10.176;2023-08-07T09:24:10;11.33;;;3.10;;
7029;SDS011;3556;53.500;10.176;2023-08-07T09:26:36;7.53;;;2.70;;
7029;SDS011;3556;53.500;10.176;2023-08-07T09:29:03;10.70;;;2.93;;
7029;SDS011;3556;53.500;10.176;2023-08-07T09:31:29;10.27;;;2.70;;
7029;SDS011;3556;53.500;10.176;2023-08-07T09:34:02;5.97;;;2.30;;
7029;SDS011;3556;53.500;10.176;2023-08-07T09:36:31;8.33;;;2.70;;
7029;SDS011;3556;53.500;10.176;2023-08-07T09:39:01;7.83;;;2.30;;
7029;SDS011;3556;53.500;10.176;2023-08-07T09:41:28;6.30;;;2.37;;
7029;SDS011;3556;53.500;10.176;2023-08-07T09:43:57;12.23;;;2.80;;
7029;SDS011;3556;53.500;10.176;2023-08-07T09:46:24;9.37;;;2.43;;
7029;SDS011;3556;53.500;10.176;2023-08-07T09:48:51;12.47;;;2.67;;
7029;SDS011;3556;53.500;10.176;2023-08-07T09:51:16;13.00;;;3.10;;
7029;SDS011;3556;53.500;10.176;2023-08-07T09:53:42;10.97;;;2.30;;
7029;SDS011;3556;53.500;10.176;2023-08-07T09:56:08;12.23;;;2.43;;
7029;SDS011;3556;53.500;10.176;2023-08-07T09:58:34;10.17;;;2.87;;
7029;SDS011;3556;53.500;10.176;2023-08-07T10:01:03;15.23;;;2.80;;
7029;SDS011;3556;53.500;10.176;2023-08-07T10:03:29;9.27;;;2.53;;
7029;SDS011;3556;53.500;10.176;2023-08-07T10:05:56;11.90;;;2.20;;
7029;SDS011;3556;53.500;10.176;2023-08-07T10:08:22;6.80;;;2.40;;
7029;SDS011;3556;53.500;10.176;2023-08-07T10:10:49;8.60;;;2.20;;
7029;SDS011;3556;53.500;10.176;2023-08-07T10:13:14;7.07;;;2.40;;
7029;SDS011;3556;53.500;10.176;2023-08-07T10:15:40;15.87;;;2.67;;
7029;SDS011;3556;53.500;10.176;2023-08-07T10:18:09;9.83;;;2.30;;
7029;SDS011;3556;53.500;10.176;2023-08-07T10:20:34;13.50;;;2.63;;
7029;SDS011;3556;53.500;10.176;2023-08-07T10:23:06;7.27;;;2.47;;
7029;SDS011;3556;53.500;10.176;2023-08-07T10:25:34;4.47;;;2.27;;
7029;SDS011;3556;53.500;10.176;2023-08-07T10:28:02;5.73;;;2.40;;
7029;SDS011;3556;53.500;10.176;2023-08-07T10:30:31;15.60;;;2.87;;
7029;SDS011;3556;53.500;10.176;2023-08-07T10:32:58;12.13;;;2.57;;
7029;SDS011;3556;53.500;10.176;2023-08-07T10:35:25;10.53;;;2.47;;
7029;SDS011;3556;53.500;10.176;2023-08-07T10:37:54;9.70;;;2.00;;
7029;SDS011;3556;53.500;10.176;2023-08-07T10:40:20;9.63;;;2.63;;
7029;SDS011;3556;53.500;10.176;2023-08-07T10:45:25;16.67;;;2.50;;
7029;SDS011;3556;53.500;10.176;2023-08-07T10:50:31;6.10;;;2.23;;
7029;SDS011;3556;53.500;10.176;2023-08-07T10:52:59;6.93;;;2.47;;
7029;SDS011;3556;53.500;10.176;2023-08-07T10:55:25;7.97;;;2.23;;
7029;SDS011;3556;53.500;10.176;2023-08-07T10:57:52;10.20;;;2.30;;
7029;SDS011;3556;53.500;10.176;2023-08-07T11:00:21;5.70;;;2.50;;
7029;SDS011;3556;53.500;10.176;2023-08-07T11:02:52;10.00;;;2.60;;
7029;SDS011;3556;53.500;10.176;2023-08-07T11:05:17;7.53;;;1.90;;
7029;SDS011;3556;53.500;10.176;2023-08-07T11:07:44;13.33;;;2.57;;
7029;SDS011;3556;53.500;10.176;2023-08-07T11:10:12;8.40;;;1.90;;
7029;SDS011;3556;53.500;10.176;2023-08-07T11:12:41;8.00;;;2.57;;
7029;SDS011;3556;53.500;10.176;2023-08-07T11:15:11;7.37;;;2.10;;
7029;SDS011;3556;53.500;10.176;2023-08-07T11:17:38;7.93;;;2.30;;
7029;SDS011;3556;53.500;10.176;2023-08-07T11:20:06;7.33;;;2.20;;
7029;SDS011;3556;53.500;10.176;2023-08-07T11:22:32;9.50;;;2.23;;
7029;SDS011;3556;53.500;10.176;2023-08-07T11:24:57;7.93;;;1.97;;
7029;SDS011;3556;53.500;10.176;2023-08-07T11:27:23;10.83;;;2.00;;
7029;SDS011;3556;53.500;10.176;2023-08-07T11:29:49;8.90;;;1.80;;
7029;SDS011;3556;53.500;10.176;2023-08-07T11:32:15;6.43;;;2.00;;
7029;SDS011;3556;53.500;10.176;2023-08-07T11:34:40;4.07;;;1.80;;
7029;SDS011;3556;53.500;10.176;2023-08-07T11:37:14;4.50;;;1.67;;
7029;SDS011;3556;53.500;10.176;2023-08-07T11:39:42;5.53;;;1.20;;
7029;SDS011;3556;53.500;10.176;2023-08-07T11:42:07;4.13;;;1.67;;
7029;SDS011;3556;53.500;10.176;2023-08-07T11:44:33;4.23;;;1.57;;
7029;SDS011;3556;53.500;10.176;2023-08-07T11:46:59;3.77;;;1.63;;
7029;SDS011;3556;53.500;10.176;2023-08-07T11:49:25;8.50;;;2.10;;
7029;SDS011;3556;53.500;10.176;2023-08-07T11:51:50;6.70;;;2.10;;
7029;SDS011;3556;53.500;10.176;2023-08-07T11:54:16;6.30;;;2.17;;
7029;SDS011;3556;53.500;10.176;2023-08-07T11:56:42;4.27;;;2.20;;
7029;SDS011;3556;53.500;10.176;2023-08-07T11:59:08;8.40;;;2.10;;
7029;SDS011;3556;53.500;10.176;2023-08-07T12:01:36;11.03;;;2.30;;
7029;SDS011;3556;53.500;10.176;2023-08-07T12:06:33;7.80;;;2.20;;
7029;SDS011;3556;53.500;10.176;2023-08-07T12:09:00;6.50;;;1.70;;
7029;SDS011;3556;53.500;10.176;2023-08-07T12:11:26;8.30;;;2.13;;
7029;SDS011;3556;53.500;10.176;2023-08-07T12:13:54;10.80;;;2.33;;
7029;SDS011;3556;53.500;10.176;2023-08-07T12:16:20;8.90;;;2.23;;
7029;SDS011;3556;53.500;10.176;2023-08-07T12:18:46;9.23;;;2.67;;
7029;SDS011;3556;53.500;10.176;2023-08-07T12:21:14;12.07;;;2.70;;
7029;SDS011;3556;53.500;10.176;2023-08-07T12:23:45;11.57;;;2.30;;
7029;SDS011;3556;53.500;10.176;2023-08-07T12:26:13;6.10;;;2.17;;
7029;SDS011;3556;53.500;10.176;2023-08-07T12:28:38;6.40;;;2.13;;
7029;SDS011;3556;53.500;10.176;2023-08-07T12:31:04;3.97;;;1.80;;
7029;SDS011;3556;53.500;10.176;2023-08-07T12:33:30;7.10;;;2.20;;
7029;SDS011;3556;53.500;10.176;2023-08-07T12:35:56;6.83;;;1.80;;
7029;SDS011;3556;53.500;10.176;2023-08-07T12:38:22;5.43;;;1.90;;
7029;SDS011;3556;53.500;10.176;2023-08-07T12:40:49;7.67;;;1.83;;
7029;SDS011;3556;53.500;10.176;2023-08-07T12:43:14;5.70;;;1.67;;
7029;SDS011;3556;53.500;10.176;2023-08-07T12:45:40;8.27;;;2.20;;
7029;SDS011;3556;53.500;10.176;2023-08-07T12:48:06;10.60;;;2.33;;
7029;SDS011;3556;53.500;10.176;2023-08-07T12:50:32;14.03;;;2.50;;
7029;SDS011;3556;53.500;10.176;2023-08-07T12:52:58;3.57;;;1.80;;
7029;SDS011;3556;53.500;10.176;2023-08-07T12:55:24;4.00;;;1.80;;
7029;SDS011;3556;53.500;10.176;2023-08-07T12:57:50;9.43;;;2.50;;
7029;SDS011;3556;53.500;10.176;2023-08-07T13:00:18;6.03;;;2.07;;
7029;SDS011;3556;53.500;10.176;2023-08-07T13:02:45;6.60;;;2.50;;
7029;SDS011;3556;53.500;10.176;2023-08-07T13:05:12;3.87;;;1.93;;
7029;SDS011;3556;53.500;10.176;2023-08-07T13:07:39;5.87;;;2.30;;
7029;SDS011;3556;53.500;10.176;2023-08-07T13:10:05;8.33;;;2.33;;
7029;SDS011;3556;53.500;10.176;2023-08-07T13:12:35;7.67;;;2.20;;
7029;SDS011;3556;53.500;10.176;2023-08-07T13:15:05;10.97;;;2.77;;
7029;SDS011;3556;53.500;10.176;2023-08-07T13:17:37;9.30;;;2.40;;
7029;SDS011;3556;53.500;10.176;2023-08-07T13:20:03;6.37;;;2.03;;
7029;SDS011;3556;53.500;10.176;2023-08-07T13:22:37;6.03;;;1.73;;
7029;SDS011;3556;53.500;10.176;2023-08-07T13:25:04;9.23;;;2.60;;
7029;SDS011;3556;53.500;10.176;2023-08-07T13:27:30;7.37;;;2.23;;
7029;SDS011;3556;53.500;10.176;2023-08-07T13:29:57;6.87;;;2.27;;
7029;SDS011;3556;53.500;10.176;2023-08-07T13:32:22;8.20;;;2.60;;
7029;SDS011;3556;53.500;10.176;2023-08-07T13:34:48;12.63;;;1.90;;
7029;SDS011;3556;53.500;10.176;2023-08-07T13:37:14;11.13;;;2.07;;
7029;SDS011;3556;53.500;10.176;2023-08-07T13:39:40;9.40;;;2.10;;
7029;SDS011;3556;53.500;10.176;2023-08-07T13:42:06;9.80;;;2.30;;
7029;SDS011;3556;53.500;10.176;2023-08-07T13:44:32;3.63;;;2.10;;
7029;SDS011;3556;53.500;10.176;2023-08-07T13:46:58;5.40;;;1.97;;
7029;SDS011;3556;53.500;10.176;2023-08-07T13:49:23;10.53;;;2.50;;
7029;SDS011;3556;53.500;10.176;2023-08-07T13:51:49;10.70;;;2.10;;
7029;SDS011;3556;53.500;10.176;2023-08-07T13:54:15;9.70;;;1.90;;
7029;SDS011;3556;53.500;10.176;2023-08-07T13:56:40;12.47;;;2.13;;
7029;SDS011;3556;53.500;10.176;2023-08-07T13:59:06;3.47;;;1.83;;
7029;SDS011;3556;53.500;10.176;2023-08-07T14:01:32;8.00;;;2.30;;
7029;SDS011;3556;53.500;10.176;2023-08-07T14:04:00;5.40;;;2.10;;
7029;SDS011;3556;53.500;10.176;2023-08-07T14:06:26;11.90;;;2.17;;
7029;SDS011;3556;53.500;10.176;2023-08-07T14:08:52;5.00;;;2.37;;
7029;SDS011;3556;53.500;10.176;2023-08-07T14:11:17;7.07;;;2.30;;
7029;SDS011;3556;53.500;10.176;2023-08-07T14:13:44;6.87;;;1.93;;
7029;SDS011;3556;53.500;10.176;2023-08-07T14:16:11;7.90;;;2.10;;
7029;SDS011;3556;53.500;10.176;2023-08-07T14:18:37;6.10;;;2.30;;
7029;SDS011;3556;53.500;10.176;2023-08-07T14:21:02;8.00;;;2.30;;
7029;SDS011;3556;53.500;10.176;2023-08-07T14:23:28;7.97;;;2.30;;
7029;SDS011;3556;53.500;10.176;2023-08-07T14:25:53;3.93;;;2.03;;
7029;SDS011;3556;53.500;10.176;2023-08-07T14:28:19;5.93;;;2.77;;
7029;SDS011;3556;53.500;10.176;2023-08-07T14:30:45;16.23;;;2.50;;
7029;SDS011;3556;53.500;10.176;2023-08-07T14:33:10;9.80;;;2.60;;
7029;SDS011;3556;53.500;10.176;2023-08-07T14:35:36;10.40;;;2.40;;
7029;SDS011;3556;53.500;10.176;2023-08-07T14:38:01;13.47;;;2.10;;
7029;SDS011;3556;53.500;10.176;2023-08-07T14:40:27;12.73;;;2.57;;
7029;SDS011;3556;53.500;10.176;2023-08-07T14:42:53;11.53;;;2.40;;
7029;SDS011;3556;53.500;10.176;2023-08-07T14:45:20;6.43;;;2.07;;
7029;SDS011;3556;53.500;10.176;2023-08-07T14:47:46;4.90;;;1.97;;
7029;SDS011;3556;53.500;10.176;2023-08-07T14:50:11;8.07;;;2.13;;
7029;SDS011;3556;53.500;10.176;2023-08-07T14:52:37;4.93;;;2.40;;
7029;SDS011;3556;53.500;10.176;2023-08-07T14:55:03;14.30;;;3.00;;
7029;SDS011;3556;53.500;10.176;2023-08-07T14:57:29;6.80;;;2.10;;
7029;SDS011;3556;53.500;10.176;2023-08-07T14:59:54;5.67;;;2.03;;
7029;SDS011;3556;53.500;10.176;2023-08-07T15:02:20;7.43;;;1.97;;